createdAt,value
2018-05-26T00:00:31.985Z,18.39
2018-05-26T00:03:34.515Z,18.27
2018-05-26T00:06:38.057Z,18.12
2018-05-26T00:09:40.576Z,18.42
2018-05-26T00:12:43.148Z,18.19
2018-05-26T00:15:45.650Z,18.35
2018-05-26T00:18:48.168Z,18.51
2018-05-26T00:21:50.679Z,18.44
2018-05-26T00:24:53.986Z,18.51
2018-05-26T00:27:56.486Z,18.06
2018-05-26T00:30:59.183Z,17.85
2018-05-26T00:34:01.758Z,17.91
2018-05-26T00:37:04.282Z,17.73
2018-05-26T00:40:06.802Z,17.80
2018-05-26T00:43:09.292Z,17.85
2018-05-26T00:46:11.778Z,18.03
2018-05-26T00:49:14.294Z,17.73
2018-05-26T00:52:16.855Z,17.67
2018-05-26T00:55:19.354Z,17.64
2018-05-26T00:58:21.849Z,17.86
2018-05-26T01:01:24.408Z,18.04
2018-05-26T01:04:26.895Z,17.98
2018-05-26T01:07:29.368Z,18.13
2018-05-26T01:10:31.927Z,17.94
2018-05-26T01:13:34.387Z,18.10
2018-05-26T01:16:36.867Z,18.09
2018-05-26T01:19:39.431Z,18.11
2018-05-26T01:22:41.924Z,17.62
2018-05-26T01:25:44.395Z,17.82
2018-05-26T01:28:46.879Z,17.40
2018-05-26T01:31:49.374Z,17.49
2018-05-26T01:34:51.991Z,17.78
2018-05-26T01:37:54.496Z,17.67
2018-05-26T01:40:56.995Z,17.28
2018-05-26T01:43:59.511Z,17.26
2018-05-26T01:47:02.009Z,17.33
2018-05-26T01:50:04.530Z,17.37
2018-05-26T01:53:07.015Z,17.07
2018-05-26T01:56:09.507Z,16.96
2018-05-26T01:59:11.982Z,16.76
2018-05-26T02:02:14.463Z,16.81
2018-05-26T02:05:16.989Z,17.16
2018-05-26T02:08:19.477Z,16.74
2018-05-26T02:11:21.966Z,17.14
2018-05-26T02:14:24.466Z,17.00
2018-05-26T02:17:26.948Z,16.86
2018-05-26T02:20:29.430Z,16.94
2018-05-26T02:23:31.945Z,17.01
2018-05-26T02:26:34.445Z,16.93
2018-05-26T02:29:36.926Z,16.72
2018-05-26T02:32:39.404Z,16.91
2018-05-26T02:35:41.902Z,17.13
2018-05-26T02:38:44.420Z,17.13
2018-05-26T02:41:46.899Z,17.16
2018-05-26T02:44:49.403Z,16.72
2018-05-26T02:47:51.891Z,16.97
2018-05-26T02:50:54.373Z,16.57
2018-05-26T02:53:56.875Z,16.86
2018-05-26T02:56:59.393Z,16.79
2018-05-26T03:00:01.888Z,16.30
2018-05-26T03:03:04.390Z,16.33
2018-05-26T03:06:12.453Z,16.47
2018-05-26T03:09:20.441Z,16.65
2018-05-26T03:12:28.592Z,16.57
2018-05-26T03:15:31.094Z,16.58
2018-05-26T03:18:33.584Z,16.60
2018-05-26T03:21:36.077Z,16.45
2018-05-26T03:24:38.566Z,16.57
2018-05-26T03:27:41.039Z,16.36
2018-05-26T03:30:43.542Z,16.35
2018-05-26T03:33:46.051Z,16.21
2018-05-26T03:36:48.526Z,16.42
2018-05-26T03:39:51.014Z,16.28
2018-05-26T03:42:53.475Z,16.37
2018-05-26T03:45:55.982Z,16.49
2018-05-26T03:48:58.498Z,16.55
2018-05-26T03:52:00.978Z,16.60
2018-05-26T03:58:58.359Z,16.80
2018-05-26T04:02:00.861Z,16.62
2018-05-26T04:05:03.355Z,16.61
2018-05-26T04:08:05.859Z,16.67
2018-05-26T04:11:08.353Z,16.34
2018-05-26T04:14:10.854Z,16.13
2018-05-26T04:17:13.324Z,15.95
2018-05-26T04:20:15.804Z,15.97
2018-05-26T04:23:18.317Z,16.19
2018-05-26T04:26:20.799Z,16.14
2018-05-26T04:29:23.321Z,16.35
2018-05-26T04:32:25.821Z,16.28
2018-05-26T04:35:28.359Z,16.44
2018-05-26T04:38:30.847Z,16.36
2018-05-26T04:41:33.365Z,16.43
2018-05-26T04:44:36.030Z,16.32
2018-05-26T04:47:38.551Z,16.48
2018-05-26T04:50:41.066Z,16.53
2018-05-26T04:53:43.575Z,16.55
2018-05-26T04:56:46.109Z,16.63
2018-05-26T04:59:48.590Z,16.57
2018-05-26T05:02:51.092Z,16.65
2018-05-26T05:05:53.583Z,16.66
2018-05-26T05:08:56.053Z,16.74
2018-05-26T05:11:58.526Z,16.60
2018-05-26T05:15:01.046Z,16.72
2018-05-26T05:18:03.582Z,16.75
2018-05-26T05:21:06.103Z,16.93
2018-05-26T05:24:08.636Z,17.38
2018-05-26T05:27:11.126Z,17.71
2018-05-26T05:30:13.653Z,17.83
2018-05-26T05:33:16.137Z,18.13
2018-05-26T05:36:18.628Z,18.36
2018-05-26T05:39:21.232Z,18.55
2018-05-26T05:42:23.820Z,18.71
2018-05-26T05:45:26.333Z,18.75
2018-05-26T05:48:28.848Z,18.83
2018-05-26T05:51:31.365Z,19.10
2018-05-26T05:54:33.853Z,19.11
2018-05-26T05:57:36.449Z,19.16
2018-05-26T06:00:38.963Z,19.22
2018-05-26T06:03:41.480Z,19.41
2018-05-26T06:06:44.019Z,19.45
2018-05-26T06:09:46.523Z,19.65
2018-05-26T06:12:49.089Z,19.61
2018-05-26T06:15:51.604Z,19.68
2018-05-26T06:18:54.118Z,19.80
2018-05-26T06:21:56.644Z,19.90
2018-05-26T06:24:59.886Z,19.87
2018-05-26T06:28:02.467Z,20.01
2018-05-26T06:31:05.200Z,20.06
2018-05-26T06:34:07.704Z,20.13
2018-05-26T06:37:10.220Z,20.22
2018-05-26T06:40:13.571Z,20.28
2018-05-26T06:43:16.090Z,20.57
2018-05-26T06:46:18.674Z,20.68
2018-05-26T06:49:21.215Z,20.77
2018-05-26T06:52:24.705Z,20.83
2018-05-26T07:20:23.648Z,22.32
2018-05-26T07:23:26.249Z,22.35
2018-05-26T07:26:28.805Z,22.33
2018-05-26T07:29:31.406Z,22.24
2018-05-26T07:32:33.935Z,22.22
2018-05-26T07:35:36.446Z,22.39
2018-05-26T07:38:38.942Z,22.34
2018-05-26T07:41:41.458Z,22.46
2018-05-26T07:44:43.934Z,22.58
2018-05-26T07:47:46.478Z,22.70
2018-05-26T07:50:49.008Z,23.02
2018-05-26T07:53:51.530Z,23.31
2018-05-26T07:56:54.063Z,23.23
2018-05-26T07:59:56.558Z,23.45
2018-05-26T08:02:59.077Z,23.44
2018-05-26T08:06:01.615Z,23.66
2018-05-26T08:09:04.142Z,23.77
2018-05-26T08:12:06.731Z,23.97
2018-05-26T08:15:09.295Z,24.22
2018-05-26T08:18:11.812Z,24.02
2018-05-26T08:21:14.373Z,24.14
2018-05-26T08:24:16.920Z,24.36
2018-05-26T08:27:19.492Z,24.60
2018-05-26T08:30:21.979Z,24.78
2018-05-26T08:33:24.496Z,24.87
2018-05-26T08:36:26.981Z,25.01
2018-05-26T08:39:29.537Z,25.10
2018-05-26T08:42:32.032Z,25.15
2018-05-26T08:45:34.584Z,25.35
2018-05-26T08:48:37.090Z,25.46
2018-05-26T08:51:39.631Z,25.52
2018-05-26T08:54:42.168Z,25.67
2018-05-26T08:57:44.680Z,25.99
2018-05-26T09:00:47.192Z,26.05
2018-05-26T09:03:49.718Z,26.24
2018-05-26T09:06:52.216Z,26.36
2018-05-26T09:09:54.750Z,26.32
2018-05-26T09:12:57.444Z,26.22
2018-05-26T09:16:00.099Z,26.55
2018-05-26T09:19:02.644Z,26.60
2018-05-26T09:22:05.149Z,26.59
2018-05-26T09:25:07.743Z,26.18
2018-05-26T09:28:10.304Z,26.71
2018-05-26T09:31:12.854Z,26.98
2018-05-26T09:34:15.572Z,26.91
2018-05-26T09:37:18.093Z,27.02
2018-05-26T09:40:20.611Z,27.19
2018-05-26T09:43:23.118Z,27.40
2018-05-26T09:46:25.668Z,27.76
2018-05-26T09:49:28.258Z,27.51
2018-05-26T09:52:30.772Z,27.75
2018-05-26T09:55:33.302Z,27.81
2018-05-26T09:58:35.807Z,27.64
2018-05-26T10:01:38.319Z,27.86
2018-05-26T10:04:40.835Z,28.07
2018-05-26T10:07:43.350Z,28.27
2018-05-26T10:10:45.875Z,28.39
2018-05-26T10:13:48.418Z,27.74
2018-05-26T10:16:50.916Z,27.76
2018-05-26T10:19:53.489Z,28.38
2018-05-26T10:22:56.021Z,28.98
2018-05-26T10:25:58.537Z,29.02
2018-05-26T10:29:01.103Z,28.32
2018-05-26T10:32:03.654Z,29.02
2018-05-26T10:35:07.177Z,28.97
2018-05-26T10:38:11.016Z,29.13
2018-05-26T10:41:13.528Z,28.72
2018-05-26T10:44:16.996Z,28.94
2018-05-26T10:47:19.528Z,29.34
2018-05-26T10:50:22.094Z,29.42
2018-05-26T10:53:24.617Z,29.24
2018-05-26T10:56:27.164Z,29.22
2018-05-26T10:59:29.758Z,29.00
2018-05-26T11:02:33.185Z,29.63
2018-05-26T11:05:35.723Z,29.55
2018-05-26T11:08:38.256Z,30.07
2018-05-26T11:11:40.723Z,29.91
2018-05-26T11:14:43.315Z,30.12
2018-05-26T11:17:46.012Z,29.86
2018-05-26T11:20:48.368Z,29.94
2018-05-26T11:23:50.870Z,30.29
2018-05-26T11:26:53.665Z,30.37
2018-05-26T11:29:56.175Z,30.23
2018-05-26T11:32:59.633Z,30.55
2018-05-26T11:36:02.209Z,30.37
2018-05-26T11:39:05.294Z,29.94
2018-05-26T11:42:07.860Z,29.57
2018-05-26T11:45:10.386Z,28.96
2018-05-26T11:48:12.893Z,28.85
2018-05-26T11:51:15.425Z,28.52
2018-05-26T11:54:17.981Z,28.32
2018-05-26T11:57:20.531Z,28.72
2018-05-26T12:00:24.141Z,29.16
2018-05-26T12:03:26.672Z,29.31
2018-05-26T12:06:29.203Z,29.74
2018-05-26T12:09:31.842Z,30.05
2018-05-26T12:12:34.426Z,30.07
2018-05-26T12:15:36.939Z,30.45
2018-05-26T12:18:39.469Z,30.23
2018-05-26T12:21:42.040Z,29.77
2018-05-26T12:24:44.577Z,30.30
2018-05-26T12:27:47.135Z,30.60
2018-05-26T12:30:49.662Z,30.61
2018-05-26T12:33:52.174Z,30.83
2018-05-26T12:36:54.685Z,30.69
2018-05-26T12:39:57.214Z,31.29
2018-05-26T12:42:59.802Z,31.43
2018-05-26T12:46:02.300Z,31.07
2018-05-26T12:49:04.861Z,31.65
2018-05-26T12:52:07.431Z,31.46
2018-05-26T12:55:09.968Z,31.21
2018-05-26T12:58:12.479Z,31.07
2018-05-26T13:01:16.226Z,31.32
2018-05-26T13:04:18.716Z,31.03
2018-05-26T13:07:21.262Z,31.09
2018-05-26T13:10:23.927Z,31.26
2018-05-26T13:13:26.460Z,31.11
2018-05-26T13:16:30.038Z,31.04
2018-05-26T13:19:32.546Z,30.67
2018-05-26T13:22:35.098Z,30.83
2018-05-26T13:25:37.649Z,30.39
2018-05-26T13:28:40.172Z,30.84
2018-05-26T13:31:42.696Z,30.81
2018-05-26T13:34:45.285Z,30.40
2018-05-26T13:37:47.807Z,30.89
2018-05-26T13:40:50.400Z,30.92
2018-05-26T13:43:52.912Z,30.70
2018-05-26T13:46:55.606Z,30.07
2018-05-26T13:49:58.187Z,29.87
2018-05-26T13:53:00.711Z,29.78
2018-05-26T13:56:03.291Z,29.35
2018-05-26T13:59:05.793Z,28.87
2018-05-26T14:02:08.339Z,27.97
2018-05-26T14:05:10.922Z,28.11
2018-05-26T14:08:13.490Z,27.26
2018-05-26T14:11:16.047Z,26.89
2018-05-26T14:14:18.598Z,26.94
2018-05-26T14:17:21.199Z,26.87
2018-05-26T14:20:23.697Z,26.64
2018-05-26T14:23:26.261Z,26.35
2018-05-26T14:26:28.864Z,26.59
2018-05-26T14:29:31.622Z,26.44
2018-05-26T14:32:34.177Z,26.45
2018-05-26T14:35:36.784Z,26.51
2018-05-26T14:38:39.349Z,26.44
2018-05-26T14:41:41.949Z,26.63
2018-05-26T14:44:44.485Z,26.76
2018-05-26T14:47:47.064Z,26.49
2018-05-26T14:50:49.624Z,26.38
2018-05-26T14:53:52.208Z,26.54
2018-05-26T14:56:54.831Z,26.50
2018-05-26T14:59:57.417Z,26.36
2018-05-26T15:02:59.960Z,26.43
2018-05-26T15:06:02.535Z,26.24
2018-05-26T15:09:06.078Z,26.19
2018-05-26T15:12:08.692Z,26.12
2018-05-26T15:15:11.235Z,26.19
2018-05-26T15:18:13.791Z,26.32
2018-05-26T15:21:16.345Z,26.56
2018-05-26T15:24:18.916Z,26.71
2018-05-26T15:27:21.436Z,26.74
2018-05-26T15:30:24.031Z,27.00
2018-05-26T15:33:26.594Z,26.96
2018-05-26T15:36:29.132Z,26.92
2018-05-26T15:39:31.636Z,26.94
2018-05-26T15:42:34.247Z,26.87
2018-05-26T15:45:36.908Z,26.66
2018-05-26T15:48:39.429Z,26.81
2018-05-26T15:51:41.987Z,27.08
2018-05-26T15:54:44.562Z,26.86
2018-05-26T15:57:47.715Z,27.25
2018-05-26T16:00:50.279Z,26.95
2018-05-26T16:03:52.824Z,27.00
2018-05-26T16:06:55.524Z,26.85
2018-05-26T16:09:58.053Z,26.81
2018-05-26T16:13:00.704Z,26.70
2018-05-26T16:16:03.230Z,26.43
2018-05-26T16:19:05.864Z,26.26
2018-05-26T16:22:08.447Z,26.18
2018-05-26T16:25:11.159Z,26.06
2018-05-26T16:28:13.712Z,26.15
2018-05-26T16:31:16.272Z,25.92
2018-05-26T16:34:19.626Z,25.99
2018-05-26T16:37:22.190Z,25.83
2018-05-26T16:40:24.770Z,25.74
2018-05-26T16:43:27.297Z,25.73
2018-05-26T16:46:30.157Z,25.60
2018-05-26T16:49:32.677Z,25.78
2018-05-26T16:52:35.201Z,25.83
2018-05-26T16:55:37.824Z,26.08
2018-05-26T16:58:40.457Z,26.06
2018-05-26T17:01:43.078Z,26.07
2018-05-26T17:04:45.603Z,26.01
2018-05-26T17:07:49.197Z,26.06
2018-05-26T17:10:51.733Z,25.85
2018-05-26T17:13:54.304Z,25.86
2018-05-26T17:16:56.868Z,25.72
2018-05-26T17:19:59.442Z,25.76
2018-05-26T17:23:02.055Z,25.61
2018-05-26T17:26:04.662Z,25.52
2018-05-26T17:29:07.312Z,25.52
2018-05-26T17:32:09.865Z,25.45
2018-05-26T17:35:12.396Z,25.52
2018-05-26T17:38:15.558Z,25.34
2018-05-26T17:41:18.141Z,25.49
2018-05-26T17:44:20.794Z,25.42
2018-05-26T17:47:23.389Z,25.47
2018-05-26T17:50:26.039Z,25.48
2018-05-26T17:53:29.424Z,25.47
2018-05-26T17:56:32.051Z,25.34
2018-05-26T17:59:34.648Z,25.46
2018-05-26T18:02:37.190Z,25.41
2018-05-26T18:05:40.800Z,25.52
2018-05-26T18:08:43.483Z,25.28
2018-05-26T18:11:46.794Z,25.13
2018-05-26T18:14:49.583Z,25.13
2018-05-26T18:17:52.250Z,24.99
2018-05-26T18:20:55.101Z,24.89
2018-05-26T18:23:57.883Z,24.94
2018-05-26T18:27:00.626Z,25.00
2018-05-26T18:30:03.421Z,24.98
2018-05-26T18:33:06.215Z,24.70
2018-05-26T18:36:09.055Z,24.69
2018-05-26T18:39:12.640Z,24.42
2018-05-26T18:42:15.247Z,24.47
2018-05-26T18:45:17.934Z,24.59
2018-05-26T18:48:20.603Z,24.62
2018-05-26T18:51:25.481Z,24.55
2018-05-26T18:54:28.540Z,24.41
2018-05-26T18:57:31.218Z,24.40
2018-05-26T19:00:33.794Z,24.40
2018-05-26T19:03:36.687Z,24.38
2018-05-26T19:06:39.453Z,24.27
2018-05-26T19:09:42.093Z,24.19
2018-05-26T19:12:46.674Z,24.12
2018-05-26T19:15:50.152Z,23.89
2018-05-26T19:18:54.219Z,23.71
2018-05-26T19:21:57.010Z,23.85
2018-05-26T19:24:59.595Z,23.81
2018-05-26T19:28:02.258Z,23.79
2018-05-26T19:31:04.869Z,23.78
2018-05-26T19:34:09.472Z,23.77
2018-05-26T19:37:12.732Z,23.71
2018-05-26T19:40:17.019Z,23.67
2018-05-26T19:43:20.891Z,23.61
2018-05-26T19:46:24.050Z,23.64
2018-05-26T19:49:27.669Z,23.55
2018-05-26T19:52:31.832Z,23.46
2018-05-26T19:55:35.582Z,23.43
2018-05-26T19:58:39.035Z,23.50
2018-05-26T20:01:41.835Z,23.34
2018-05-26T20:04:45.658Z,23.36
2018-05-26T20:07:49.439Z,23.37
2018-05-26T20:10:53.345Z,23.40
2018-05-26T20:13:57.248Z,23.49
2018-05-26T20:17:01.731Z,23.44
2018-05-26T20:20:04.378Z,23.47
2018-05-26T20:23:06.937Z,23.33
2018-05-26T20:26:09.486Z,23.35
2018-05-26T20:29:12.113Z,23.38
2018-05-26T20:32:14.738Z,23.21
2018-05-26T20:35:17.348Z,23.28
2018-05-26T20:38:19.971Z,23.22
2018-05-26T20:41:22.573Z,23.15
2018-05-26T20:44:25.232Z,23.11
2018-05-26T20:47:29.509Z,23.16
2018-05-26T20:50:32.300Z,23.01
2018-05-26T20:53:42.279Z,23.01
2018-05-26T20:56:46.378Z,22.97
2018-05-26T20:59:49.277Z,23.02
2018-05-26T21:02:56.447Z,22.89
2018-05-26T21:05:59.195Z,22.72
2018-05-26T21:09:01.872Z,22.61
2018-05-26T21:12:04.517Z,22.59
2018-05-26T21:15:07.258Z,22.59
2018-05-26T21:18:09.802Z,22.63
2018-05-26T21:21:13.107Z,22.49
2018-05-26T21:24:16.662Z,22.50
2018-05-26T21:27:19.338Z,22.58
2018-05-26T21:30:21.901Z,22.41
2018-05-26T21:33:24.508Z,22.43
2018-05-26T21:36:29.631Z,22.39
2018-05-26T21:39:32.206Z,22.33
2018-05-26T21:42:34.811Z,22.24
2018-05-26T21:45:40.045Z,22.14
2018-05-26T21:48:42.609Z,22.14
2018-05-26T21:51:45.158Z,22.14
2018-05-26T21:54:47.736Z,22.00
2018-05-26T21:57:51.672Z,21.92
2018-05-26T22:00:54.248Z,21.88
2018-05-26T22:03:56.941Z,21.75
2018-05-26T22:07:00.205Z,21.80
2018-05-26T22:10:03.650Z,21.75
2018-05-26T22:13:06.331Z,21.44
2018-05-26T22:16:09.032Z,21.61
2018-05-26T22:19:11.647Z,21.57
2018-05-26T22:22:14.287Z,21.25
2018-05-26T22:25:17.829Z,21.36
2018-05-26T22:28:21.510Z,21.31
2018-05-26T22:31:24.130Z,21.21
2018-05-26T22:34:26.754Z,21.16
2018-05-26T22:37:29.529Z,21.06
2018-05-26T22:40:32.142Z,21.27
2018-05-26T22:43:36.898Z,21.25
2018-05-26T22:46:40.173Z,21.18
2018-05-26T22:49:43.777Z,21.12
2018-05-26T22:52:46.364Z,21.09
2018-05-26T22:55:51.092Z,21.06
2018-05-26T22:58:53.659Z,21.10
2018-05-26T23:02:00.145Z,21.00
2018-05-26T23:05:02.673Z,21.10
2018-05-26T23:08:05.310Z,20.98
2018-05-26T23:11:13.158Z,21.03
2018-05-26T23:14:15.747Z,20.84
2018-05-26T23:20:27.786Z,20.70
2018-05-26T23:23:30.307Z,20.65
2018-05-26T23:26:32.902Z,20.61
2018-05-26T23:29:36.093Z,20.58
2018-05-26T23:32:38.699Z,20.65
2018-05-26T23:35:41.621Z,20.58
2018-05-26T23:38:44.208Z,20.46
2018-05-26T23:41:46.791Z,20.44
2018-05-26T23:44:49.373Z,20.39
2018-05-26T23:47:51.942Z,20.51
2018-05-26T23:50:54.583Z,20.40
2018-05-26T23:53:57.109Z,20.30
2018-05-26T23:57:00.046Z,20.33
